EGUL - Lakenheath Royal AFB
Distance from station: E 5mi, 14km
Updated: 06/22/2018 12:56pm
Clear
Clear
 Wind from ESE
Wind: ESE 5 mph , 7 km/h
Temperature: 61°F , 16°C
Dew Point: 37°F , 3°C
Humidity: 42%
Barometer: 30.39 inHg , 1029.1 hPa
Clouds: Clear
Visibility: 6 miles , 10 km
2018/06/22 19:56 EGUL 221956Z AUTO 11004KT 9999 CLR 16/03 A3039 RMK AO2 SLP294 T01600034